x

La Perouse Bank (46206) Wave Buoy

12:00 - Fri 22nd Sep 2017 All times are PDT. -7 hours from GMT.

  • Sig Wave height 5.9ft
  • Peak Period 9s
  • Wind
  • Sea Temp 56°f
  • Luft Temp 55°f
  • Sea Pressure 1018.3mb
  • La Perouse Bank
  • La Perouse Bank

More Historic Weather Station data

Upgrade to MSW Pro to gain access to the past 30 days of data for over 8000 Wavebouys and Weather Stations around the globe.

Join

Comparision Forecast

View Surf forecast
   
Fr 09/22 12:00 6ft 9s  -  2 mph 1018.3mb 56f 55f
11:00 6ft 10s  -  2 mph 1018.6mb 55f 55f
10:00 6ft 10s 2 4 mph 1018.3mb 54f 54f
9:00 6.5ft 9s 2 4 mph 1018.3mb 55f 53f
8:00 6.5ft 9s 2 4 mph 1018.2mb 55f 52f
7:00 7ft 9s 2 2 mph 1017.6mb 54f 51f
6:00 7ft 10s 2 4 mph 1017.1mb 54f 53f
5:00 7ft 9s 2 4 mph 1016.9mb 54f 53f
4:00 7ft 10s 2 4 mph 1016.8mb 53f 54f
3:00 7.5ft 10s 2 4 mph 1016.9mb 53f 54f
2:00 7ft 9s  -  4 mph 1016.9mb 53f 55f
1:00 6.5ft 9s 2 4 mph 1016.9mb 53f 54f
12:00 6.5ft 10s 4 4 mph 1016.8mb 53f 54f
Do 09/21 11:00 7ft 10s 2 4 mph 1016.7mb 53f 53f
10:00 7ft 10s 2 4 mph 1016.6mb 53f 55f
9:00 7ft 10s 4 4 mph 1016.7mb 53f 54f
8:00 7.5ft 10s 2 4 mph 1016.7mb 53f 54f
7:00 8ft 10s 2 4 mph 1016.3mb 54f 54f
6:00 9ft 10s 2 4 mph 1016mb 54f 55f
5:00 8.5ft 10s 4 7 mph 1015.9mb 53f 55f
4:00 9ft 10s 2 4 mph 1015.6mb 54f 55f
3:00 9ft 11s 2 4 mph 1015.1mb 54f 55f
2:00 8ft 10s 4 7 mph 1014.7mb 54f 54f
1:00 8ft 10s 2 4 mph 1014.7mb 53f 54f
12:00 10ft 10s  -  4 mph 1014.4mb 53f 54f
11:00 8.5ft 10s 2 7 mph 1014.2mb 52f 53f
10:00 8ft 10s 4 9 mph 1014mb 52f 53f
9:00 8ft 10s 13 16 mph 1013.5mb 52f 52f
8:00 7.5ft 10s 11 16 mph 1013.1mb 52f 52f
7:00 8.5ft 10s 13 18 mph 1012.3mb 52f 51f
6:00 8ft 10s 16 18 mph 1011.5mb 52f 52f
5:00 8.5ft 9s 13 16 mph 1011.1mb 52f 53f
4:00 9ft 10s 9 13 mph 1010.7mb 52f 52f
3:00 8ft 11s 9 13 mph 1010.1mb 52f 53f
2:00 9ft 11s 7 9 mph 1010.1mb 52f 53f
1:00 9ft 10s 4 9 mph 1009.5mb 52f 53f
12:00 10ft 10s 4 7 mph 1009.3mb 52f 53f
Mi 09/20 11:00 10ft 9s 2 4 mph 1009.1mb 52f 53f
10:00 9.5ft 10s 2 4 mph 1008.9mb 52f 53f
9:00 9ft 10s 2 4 mph 1008.8mb 53f 54f
8:00 10ft 10s 4 7 mph 1008.7mb 52f 53f
7:00 9.5ft 9s 4 9 mph 1008.5mb 53f 54f
6:00 8ft 8s 9 11 mph 1008.3mb 53f 55f
5:00 8ft 9s 9 11 mph 1007.7mb 53f 55f
4:00 7ft 11s 9 11 mph 1007.8mb 54f 55f
3:00 6.5ft 10s 2 4 mph 1007.4mb 54f 55f
2:00 6ft 11s 4 4 mph 1007mb 54f 54f
1:00 6ft 10s 4 4 mph 1007mb 54f 54f
12:00 6ft 10s 2 2 mph 1006.9mb 53f 54f
11:00 6ft 9s 2 4 mph 1006.4mb 53f 53f
10:00 6ft 12s  -  2 mph 1006.1mb 53f 54f
9:00 6ft 9s 2 2 mph 1005.7mb 53f 53f
8:00 7ft 10s 2 4 mph 1005.7mb 53f 53f
7:00 6.5ft 11s 4 7 mph 1005.5mb 53f 52f
6:00 7.5ft 10s 7 9 mph 1005.2mb 53f 52f
5:00 7.5ft 12s 7 7 mph 1004.7mb 52f 52f
4:00 8ft 11s 4 7 mph 1004.6mb 52f 52f
3:00 8ft 12s 4 7 mph 1004.5mb 52f 52f
2:00 8ft 11s 2 4 mph 1004.3mb 52f 52f
1:00 9ft 12s 2 4 mph 1004.4mb 52f 52f
12:00 8.5ft 12s 4 7 mph 1004.7mb 52f 53f
Di 09/19 11:00 9ft 12s 4 9 mph 1005.1mb 53f 53f
10:00 9.5ft 13s 4 7 mph 1005.5mb 53f 53f
9:00 9ft 12s 4 7 mph 1005.7mb 53f 54f
8:00 9ft 14s 4 4 mph 1006.3mb 53f 54f
7:00 9ft 12s 2 4 mph 1006.8mb 54f 55f
6:00 9.5ft 14s  -  2 mph 1006.9mb 54f 55f
5:00 9.5ft 14s 2 4 mph 1007.2mb 54f 56f
4:00 11ft 12s 2 2 mph 1007.2mb 54f 56f
3:00 11ft 13s 2 4 mph 1007.4mb 54f 55f
2:00 13ft 14s 2 4 mph 1007.5mb 54f 54f
1:00 11ft 14s 2 4 mph 1007.6mb 53f 54f
12:00 13ft 14s 2 4 mph 1007.8mb 53f 53f
11:00 14ft 14s 2 4 mph 1007.6mb 52f 53f
10:00 13ft 14s  -  4 mph 1007.3mb 51f 54f
9:00 13.5ft 14s 2 4 mph 1007.1mb 51f 53f
8:00 11.5ft 14s 7 9 mph 1006.8mb 51f 53f
7:00 12ft 13s 7 11 mph 1006.6mb 51f 53f
6:00 12.5ft 14s 4 7 mph 1006.3mb 51f 52f
5:00 11ft 14s 7 9 mph 1005.9mb 51f 52f
4:00 11ft 14s 9 11 mph 1005.1mb 51f 52f
3:00 11ft 15s 7 9 mph 1004.7mb 51f 52f
2:00 11.5ft 14s 7 11 mph 1004.5mb 51f 51f
1:00 12ft 16s 9 13 mph 1004.1mb 51f 52f
12:00 12ft 14s 16 22 mph 1003.7mb 51f 52f
Mo 09/18 11:00 11.5ft 16s 18 27 mph 1003.4mb 51f 52f
10:00 12.5ft 15s 16 22 mph 1003.3mb 51f 52f
9:00 13ft 16s 18 25 mph 1003.3mb 51f 52f